createdAt,value
2018-06-08T00:00:06.816Z,20.83
2018-06-08T00:01:12.406Z,21.30
2018-06-08T00:02:17.850Z,19.63
2018-06-08T00:03:23.306Z,21.97
2018-06-08T00:04:28.745Z,21.73
2018-06-08T00:05:34.203Z,20.47
2018-06-08T00:06:39.661Z,20.03
2018-06-08T00:07:45.081Z,23.67
2018-06-08T00:08:50.480Z,21.90
2018-06-08T00:09:55.953Z,20.90
2018-06-08T00:11:01.350Z,21.73
2018-06-08T00:12:06.835Z,21.40
2018-06-08T00:13:12.353Z,20.33
2018-06-08T00:14:17.758Z,19.97
2018-06-08T00:15:23.414Z,22.67
2018-06-08T00:16:29.102Z,20.70
2018-06-08T00:17:34.561Z,19.47
2018-06-08T00:18:40.001Z,20.90
2018-06-08T00:19:45.430Z,21.07
2018-06-08T00:20:50.866Z,21.27
2018-06-08T00:21:56.320Z,20.13
2018-06-08T00:23:01.842Z,21.47
2018-06-08T00:24:07.316Z,20.07
2018-06-08T00:25:12.763Z,21.37
2018-06-08T00:26:18.473Z,19.97
2018-06-08T00:27:23.913Z,19.93
2018-06-08T00:28:29.377Z,21.63
2018-06-08T00:29:34.809Z,21.03
2018-06-08T00:30:40.233Z,20.70
2018-06-08T00:31:45.640Z,20.57
2018-06-08T00:32:51.058Z,20.63
2018-06-08T00:33:56.556Z,21.20
2018-06-08T00:35:02.039Z,20.90
2018-06-08T00:36:07.910Z,22.07
2018-06-08T00:37:13.337Z,21.17
2018-06-08T00:38:18.762Z,20.60
2018-06-08T00:39:24.175Z,21.13
2018-06-08T00:40:29.603Z,22.67
2018-06-08T00:41:35.069Z,21.43
2018-06-08T00:42:40.490Z,20.60
2018-06-08T00:43:45.926Z,22.23
2018-06-08T00:44:51.559Z,21.50
2018-06-08T00:45:57.087Z,19.47
2018-06-08T00:47:02.920Z,21.70
2018-06-08T00:48:08.379Z,21.43
2018-06-08T00:49:13.788Z,19.67
2018-06-08T00:50:19.249Z,20.97
2018-06-08T00:51:24.691Z,19.80
2018-06-08T00:52:30.211Z,22.10
2018-06-08T00:53:35.606Z,20.83
2018-06-08T00:54:41.029Z,21.60
2018-06-08T00:55:46.458Z,19.50
2018-06-08T00:57:05.517Z,21.20
2018-06-08T00:58:10.945Z,21.00
2018-06-08T00:59:16.378Z,21.23
2018-06-08T01:00:21.805Z,19.93
2018-06-08T01:01:27.274Z,21.77
2018-06-08T01:02:32.749Z,20.80
2018-06-08T01:03:38.219Z,21.43
2018-06-08T01:04:43.695Z,22.63
2018-06-08T01:05:49.126Z,20.53
2018-06-08T01:06:54.556Z,21.27
2018-06-08T01:08:00.737Z,20.27
2018-06-08T01:09:09.498Z,21.77
2018-06-08T01:10:14.934Z,20.37
2018-06-08T01:11:20.354Z,21.93
2018-06-08T01:12:25.807Z,22.17
2018-06-08T01:13:31.250Z,21.00
2018-06-08T01:14:36.684Z,21.67
2018-06-08T01:15:42.945Z,22.20
2018-06-08T01:16:48.509Z,21.03
2018-06-08T01:17:53.929Z,23.30
2018-06-08T01:18:59.346Z,21.57
2018-06-08T01:20:05.101Z,20.73
2018-06-08T01:21:10.518Z,24.60
2018-06-08T01:22:15.958Z,20.97
2018-06-08T01:23:21.382Z,21.80
2018-06-08T01:24:26.827Z,22.10
2018-06-08T01:25:32.376Z,22.93
2018-06-08T01:26:37.793Z,22.23
2018-06-08T01:27:43.289Z,23.10
2018-06-08T01:28:48.731Z,22.33
2018-06-08T01:29:54.425Z,22.47
2018-06-08T01:30:59.979Z,20.93
2018-06-08T01:32:05.437Z,20.30
2018-06-08T01:33:10.869Z,22.30
2018-06-08T01:34:16.286Z,20.83
2018-06-08T01:35:22.034Z,20.53
2018-06-08T01:36:27.474Z,21.27
2018-06-08T01:37:32.918Z,20.73
2018-06-08T01:38:38.370Z,21.40
2018-06-08T01:39:43.817Z,19.70
2018-06-08T01:40:49.431Z,19.90
2018-06-08T01:41:54.848Z,20.20
2018-06-08T01:43:00.325Z,19.70
2018-06-08T01:44:06.379Z,20.20
2018-06-08T01:45:11.877Z,20.27
2018-06-08T01:46:17.331Z,20.30
2018-06-08T01:47:22.762Z,20.00
2018-06-08T01:48:28.213Z,21.83
2018-06-08T01:49:33.982Z,20.63
2018-06-08T01:50:39.385Z,20.33
2018-06-08T01:51:44.861Z,20.30
2018-06-08T01:52:50.286Z,21.00
2018-06-08T01:53:55.888Z,20.80
2018-06-08T01:55:01.429Z,21.50
2018-06-08T01:56:06.857Z,20.37
2018-06-08T01:57:12.294Z,19.67
2018-06-08T01:58:17.728Z,21.30
2018-06-08T01:59:23.281Z,19.20
2018-06-08T02:00:28.752Z,18.43
2018-06-08T02:01:34.208Z,21.87
2018-06-08T02:02:39.629Z,19.67
2018-06-08T02:03:45.071Z,19.87
2018-06-08T02:04:50.547Z,20.23
2018-06-08T02:05:56.173Z,21.97
2018-06-08T02:07:01.611Z,20.63
2018-06-08T02:08:07.010Z,17.77
2018-06-08T02:09:12.925Z,19.67
2018-06-08T02:10:18.358Z,20.83
2018-06-08T02:11:23.820Z,18.80
2018-06-08T02:12:29.530Z,19.97
2018-06-08T02:13:34.937Z,19.60
2018-06-08T02:14:40.373Z,18.83
2018-06-08T02:15:45.839Z,19.03
2018-06-08T02:16:51.290Z,18.37
2018-06-08T02:17:56.906Z,18.83
2018-06-08T02:19:02.468Z,17.90
2018-06-08T02:20:07.930Z,20.17
2018-06-08T02:21:13.373Z,19.10
2018-06-08T02:22:18.998Z,18.83
2018-06-08T02:23:24.429Z,18.77
2018-06-08T02:24:29.859Z,19.23
2018-06-08T02:25:35.359Z,20.70
2018-06-08T02:26:40.771Z,19.83
2018-06-08T02:27:46.411Z,19.30
2018-06-08T02:28:51.857Z,19.40
2018-06-08T02:29:57.256Z,18.00
2018-06-08T02:31:02.724Z,19.03
2018-06-08T02:32:08.308Z,18.40
2018-06-08T02:33:14.004Z,19.87
2018-06-08T02:34:19.428Z,20.73
2018-06-08T02:35:24.875Z,18.90
2018-06-08T02:36:30.544Z,19.17
2018-06-08T02:37:35.963Z,19.77
2018-06-08T02:38:41.414Z,18.87
2018-06-08T02:39:46.861Z,20.67
2018-06-08T02:40:52.377Z,19.30
2018-06-08T02:41:57.808Z,18.60
2018-06-08T02:43:03.248Z,19.10
2018-06-08T02:44:08.817Z,18.53
2018-06-08T02:45:14.271Z,20.37
2018-06-08T02:46:19.764Z,19.70
2018-06-08T02:47:25.260Z,20.47
2018-06-08T02:48:30.693Z,19.67
2018-06-08T02:49:36.188Z,19.50
2018-06-08T02:50:41.594Z,19.40
2018-06-08T02:51:47.144Z,21.63
2018-06-08T02:52:52.585Z,21.37
2018-06-08T02:53:58.030Z,20.33
2018-06-08T02:55:03.565Z,20.33
2018-06-08T02:56:09.010Z,21.30
2018-06-08T02:57:14.677Z,19.77
2018-06-08T02:58:20.109Z,21.50
2018-06-08T02:59:25.613Z,22.00
2018-06-08T03:00:31.086Z,21.70
2018-06-08T03:01:36.649Z,22.40
2018-06-08T03:02:42.085Z,21.10
2018-06-08T03:03:47.546Z,21.53
2018-06-08T03:04:52.965Z,22.53
2018-06-08T03:05:58.462Z,22.07
2018-06-08T03:07:03.943Z,21.77
2018-06-08T03:08:09.416Z,22.27
2018-06-08T03:09:14.823Z,22.23
2018-06-08T03:10:20.227Z,21.43
2018-06-08T03:11:25.653Z,20.60
2018-06-08T03:12:31.090Z,21.43
2018-06-08T03:13:36.639Z,23.03
2018-06-08T03:14:42.082Z,21.80
2018-06-08T03:15:47.274Z,22.33
2018-06-08T03:16:52.621Z,21.30
2018-06-08T03:17:58.057Z,23.40
2018-06-08T03:19:04.002Z,22.27
2018-06-08T03:20:09.475Z,21.30
2018-06-08T03:21:14.882Z,21.57
2018-06-08T03:22:20.338Z,23.60
2018-06-08T03:23:25.772Z,22.40
2018-06-08T03:24:31.360Z,23.37
2018-06-08T03:25:36.788Z,23.00
2018-06-08T03:26:42.701Z,23.23
2018-06-08T03:27:48.221Z,23.47
2018-06-08T03:28:53.622Z,22.90
2018-06-08T03:29:59.085Z,22.57
2018-06-08T03:31:04.525Z,21.70
2018-06-08T03:32:09.984Z,22.57
2018-06-08T03:33:15.392Z,22.57
2018-06-08T03:34:20.939Z,21.23
2018-06-08T03:35:26.773Z,23.33
2018-06-08T03:36:32.309Z,21.70
2018-06-08T03:37:37.762Z,22.00
2018-06-08T03:38:43.186Z,23.13
2018-06-08T03:39:48.358Z,21.50
2018-06-08T03:40:53.690Z,23.07
2018-06-08T03:41:59.242Z,23.87
2018-06-08T03:43:04.873Z,23.00
2018-06-08T03:44:10.284Z,21.93
2018-06-08T03:45:15.805Z,23.20
2018-06-08T03:46:21.217Z,21.87
2018-06-08T03:47:26.648Z,22.10
2018-06-08T03:48:32.125Z,22.03
2018-06-08T03:49:37.526Z,22.20
2018-06-08T03:50:42.978Z,22.57
2018-06-08T03:51:48.370Z,22.37
2018-06-08T03:52:53.817Z,23.40
2018-06-08T03:53:59.363Z,21.37
2018-06-08T03:55:05.066Z,22.00
2018-06-08T03:56:10.471Z,21.80
2018-06-08T03:57:15.896Z,22.33
2018-06-08T03:58:21.321Z,21.97
2018-06-08T03:59:26.742Z,20.77
2018-06-08T04:00:32.185Z,21.90
2018-06-08T04:01:37.623Z,20.93
2018-06-08T04:02:43.025Z,22.10
2018-06-08T04:03:48.471Z,22.07
2018-06-08T04:04:53.984Z,21.30
2018-06-08T04:05:59.429Z,22.97
2018-06-08T04:07:04.965Z,23.77
2018-06-08T04:08:10.406Z,21.00
2018-06-08T04:09:15.821Z,21.50
2018-06-08T04:10:21.274Z,21.83
2018-06-08T04:11:26.727Z,23.17
2018-06-08T04:12:32.167Z,20.27
2018-06-08T04:13:37.574Z,21.60
2018-06-08T04:14:42.998Z,21.20
2018-06-08T04:15:48.458Z,22.20
2018-06-08T04:16:53.915Z,21.53
2018-06-08T04:17:59.452Z,21.30
2018-06-08T04:19:04.914Z,20.90
2018-06-08T04:20:10.330Z,20.33
2018-06-08T04:21:15.910Z,20.30
2018-06-08T04:22:21.333Z,19.83
2018-06-08T04:23:26.861Z,20.40
2018-06-08T04:24:32.292Z,20.03
2018-06-08T04:25:37.710Z,19.93
2018-06-08T04:26:43.305Z,18.80
2018-06-08T04:27:48.712Z,20.43
2018-06-08T04:28:54.161Z,21.00
2018-06-08T04:29:59.597Z,21.20
2018-06-08T04:31:05.025Z,20.30
2018-06-08T04:32:10.482Z,21.40
2018-06-08T04:33:15.950Z,22.10
2018-06-08T04:34:21.365Z,21.53
2018-06-08T04:35:26.961Z,20.80
2018-06-08T04:36:32.470Z,20.37
2018-06-08T04:37:37.881Z,21.40
2018-06-08T04:38:43.335Z,21.07
2018-06-08T04:39:48.973Z,23.23
2018-06-08T04:40:54.401Z,20.67
2018-06-08T04:41:59.822Z,19.40
2018-06-08T04:43:05.253Z,20.67
2018-06-08T04:44:10.705Z,20.70
2018-06-08T04:45:16.121Z,20.10
2018-06-08T04:46:21.539Z,20.90
2018-06-08T04:47:26.984Z,21.13
2018-06-08T04:48:32.427Z,20.30
2018-06-08T04:49:37.861Z,21.93
2018-06-08T04:50:43.269Z,19.30
2018-06-08T04:51:48.672Z,20.40
2018-06-08T04:52:54.245Z,19.23
2018-06-08T04:53:59.758Z,20.40
2018-06-08T04:55:05.656Z,20.30
2018-06-08T04:56:11.063Z,21.73
2018-06-08T04:57:21.459Z,21.70
2018-06-08T04:58:27.413Z,20.10
2018-06-08T04:59:32.862Z,19.53
2018-06-08T05:00:38.400Z,20.30
2018-06-08T05:01:43.957Z,19.67
2018-06-08T05:02:49.406Z,20.33
2018-06-08T05:03:54.838Z,20.33
2018-06-08T05:05:00.282Z,20.33
2018-06-08T05:06:05.971Z,20.13
2018-06-08T05:07:11.380Z,20.23
2018-06-08T05:08:16.859Z,21.67
2018-06-08T05:09:22.303Z,19.87
2018-06-08T05:10:27.721Z,20.67
2018-06-08T05:11:33.159Z,21.07
2018-06-08T05:12:38.658Z,20.00
2018-06-08T05:13:44.146Z,20.73
2018-06-08T05:14:49.588Z,19.80
2018-06-08T05:15:55.018Z,20.43
2018-06-08T05:17:00.626Z,19.57
2018-06-08T05:18:06.060Z,21.47
2018-06-08T05:19:11.907Z,21.10
2018-06-08T05:20:17.378Z,19.17
2018-06-08T05:21:22.798Z,21.00
2018-06-08T05:22:28.246Z,20.87
2018-06-08T05:23:33.706Z,21.20
2018-06-08T05:24:39.157Z,20.53
2018-06-08T05:25:44.615Z,20.73
2018-06-08T05:26:50.096Z,19.60
2018-06-08T05:27:55.529Z,20.63
2018-06-08T05:29:10.907Z,19.70
2018-06-08T05:30:18.993Z,20.20
2018-06-08T05:31:24.426Z,20.43
2018-06-08T05:32:30.107Z,20.13
2018-06-08T05:33:35.621Z,19.80
2018-06-08T05:34:41.076Z,21.03
2018-06-08T05:35:54.844Z,20.33
2018-06-08T05:37:04.014Z,20.00
2018-06-08T05:38:09.474Z,20.27
2018-06-08T05:39:14.889Z,20.53
2018-06-08T05:40:20.461Z,19.90
2018-06-08T05:41:25.986Z,21.63
2018-06-08T05:42:31.870Z,20.10
2018-06-08T05:43:37.294Z,20.77
2018-06-08T05:44:42.725Z,20.27
2018-06-08T05:45:48.149Z,17.73
2018-06-08T05:46:53.592Z,19.43
2018-06-08T05:47:59.637Z,18.90
2018-06-08T05:49:05.172Z,20.20
2018-06-08T05:50:10.579Z,19.97
2018-06-08T05:51:15.973Z,20.17
2018-06-08T05:52:21.410Z,20.80
2018-06-08T05:53:27.362Z,20.07
2018-06-08T05:54:32.793Z,18.23
2018-06-08T05:55:38.254Z,19.30
2018-06-08T05:56:43.665Z,19.83
2018-06-08T05:57:49.126Z,18.30
2018-06-08T05:58:54.941Z,18.53
2018-06-08T06:00:00.502Z,19.23
2018-06-08T06:01:06.296Z,20.00
2018-06-08T06:02:11.713Z,19.70
2018-06-08T06:03:17.139Z,19.50
2018-06-08T06:04:22.581Z,18.83
2018-06-08T06:05:28.021Z,19.77
2018-06-08T06:06:33.457Z,18.50
2018-06-08T06:07:38.877Z,18.10
2018-06-08T06:08:44.285Z,19.80
2018-06-08T06:09:49.782Z,19.03
2018-06-08T06:10:55.223Z,19.43
2018-06-08T06:12:00.674Z,18.03
2018-06-08T06:13:06.399Z,18.03
2018-06-08T06:14:11.841Z,19.20
2018-06-08T06:15:17.288Z,18.70
2018-06-08T06:16:22.698Z,19.83
2018-06-08T06:17:28.272Z,19.67
2018-06-08T06:18:33.897Z,19.10
2018-06-08T06:19:39.346Z,19.17
2018-06-08T06:20:44.777Z,19.40
2018-06-08T06:21:50.226Z,19.00
2018-06-08T06:22:55.645Z,19.37
2018-06-08T06:24:01.080Z,19.30
2018-06-08T06:25:07.194Z,19.90
2018-06-08T06:26:12.792Z,19.00
2018-06-08T06:27:18.223Z,20.17
2018-06-08T06:28:23.713Z,20.40
2018-06-08T06:29:29.240Z,18.07
2018-06-08T06:30:34.685Z,20.30
2018-06-08T06:31:39.997Z,18.80
2018-06-08T06:32:45.335Z,20.50
2018-06-08T06:33:50.765Z,19.30
2018-06-08T06:34:56.179Z,19.07
2018-06-08T06:36:01.617Z,18.77
2018-06-08T06:37:07.233Z,20.17
2018-06-08T06:38:12.670Z,19.53
2018-06-08T06:39:17.772Z,20.43
2018-06-08T06:40:23.314Z,19.60
2018-06-08T06:41:28.769Z,19.90
2018-06-08T06:42:34.885Z,18.20
2018-06-08T06:43:40.325Z,20.70
2018-06-08T06:44:45.785Z,18.03
2018-06-08T06:45:51.226Z,19.40
2018-06-08T06:46:56.665Z,19.27
2018-06-08T06:48:02.501Z,19.00
2018-06-08T06:49:07.979Z,18.57
2018-06-08T06:50:13.104Z,18.47
2018-06-08T06:51:18.545Z,19.57
2018-06-08T06:52:24.026Z,20.57
2018-06-08T06:53:30.034Z,18.93
2018-06-08T06:54:35.461Z,21.23
2018-06-08T06:55:40.922Z,17.93
2018-06-08T06:56:46.426Z,20.33
2018-06-08T06:57:51.849Z,19.93
2018-06-08T06:58:57.517Z,20.03
2018-06-08T07:00:03.012Z,19.23
2018-06-08T07:01:08.432Z,20.30
2018-06-08T07:02:13.865Z,21.07
2018-06-08T07:03:19.329Z,18.77
2018-06-08T07:04:24.833Z,18.90
2018-06-08T07:05:30.298Z,19.17
2018-06-08T07:06:35.866Z,19.80
2018-06-08T07:07:41.338Z,18.80
2018-06-08T07:08:46.788Z,18.90
2018-06-08T07:09:52.190Z,20.47
2018-06-08T07:10:57.683Z,18.77
2018-06-08T07:12:03.154Z,20.90
2018-06-08T07:13:09.151Z,19.73
2018-06-08T07:14:19.263Z,20.43
2018-06-08T07:15:25.354Z,20.17
2018-06-08T07:16:30.918Z,18.60
2018-06-08T07:17:36.369Z,19.80
2018-06-08T07:18:41.893Z,18.93
2018-06-08T07:19:47.299Z,20.33
2018-06-08T07:20:52.754Z,19.40
2018-06-08T07:21:58.182Z,19.73
2018-06-08T07:23:03.625Z,19.10
2018-06-08T07:24:09.269Z,18.33
2018-06-08T07:25:14.890Z,19.60
2018-06-08T07:26:20.314Z,18.00
2018-06-08T07:27:25.787Z,18.80
2018-06-08T07:28:31.235Z,18.50
2018-06-08T07:29:36.689Z,19.40
2018-06-08T07:30:42.135Z,19.20
2018-06-08T07:31:47.770Z,20.50
2018-06-08T07:32:53.181Z,19.77
2018-06-08T07:33:58.686Z,20.67
2018-06-08T07:35:04.258Z,20.00
2018-06-08T07:36:09.710Z,19.50
2018-06-08T07:37:15.125Z,19.47
2018-06-08T07:38:20.561Z,21.03
2018-06-08T07:39:25.985Z,19.83
2018-06-08T07:40:31.587Z,20.67
2018-06-08T07:41:37.161Z,20.80
2018-06-08T07:42:42.762Z,18.67
2018-06-08T07:43:48.206Z,21.33
2018-06-08T07:44:53.629Z,17.90
2018-06-08T07:45:59.472Z,19.30
2018-06-08T07:47:04.951Z,20.13
2018-06-08T07:48:10.390Z,19.30
2018-06-08T07:49:15.808Z,19.10
2018-06-08T07:50:21.240Z,18.30
2018-06-08T07:51:26.678Z,19.33
2018-06-08T07:52:32.118Z,19.63
2018-06-08T07:53:37.610Z,18.90
2018-06-08T07:54:43.046Z,19.17
2018-06-08T07:55:48.518Z,19.40
2018-06-08T07:56:53.938Z,19.10
2018-06-08T07:57:59.489Z,19.20
2018-06-08T07:59:05.045Z,18.03
2018-06-08T08:00:10.509Z,18.90
2018-06-08T08:01:15.961Z,20.10
2018-06-08T08:02:21.414Z,17.70
2018-06-08T08:03:26.834Z,20.43
2018-06-08T08:04:32.294Z,18.63
2018-06-08T08:05:37.709Z,19.07
2018-06-08T08:06:43.165Z,20.33
2018-06-08T08:07:48.710Z,22.73
2018-06-08T08:08:54.134Z,21.63
2018-06-08T08:09:59.666Z,20.60
2018-06-08T08:11:05.106Z,22.40
2018-06-08T08:12:10.537Z,22.63
2018-06-08T08:13:16.106Z,20.13
2018-06-08T08:14:21.570Z,22.60
2018-06-08T08:15:26.985Z,21.90
2018-06-08T08:16:32.488Z,21.37
2018-06-08T08:17:37.925Z,22.37
2018-06-08T08:18:43.421Z,23.10
2018-06-08T08:19:48.871Z,23.53
2018-06-08T08:20:54.336Z,22.40
2018-06-08T08:21:59.886Z,22.63
2018-06-08T08:23:05.321Z,22.53
2018-06-08T08:24:11.130Z,23.47
2018-06-08T08:25:16.771Z,22.60
2018-06-08T08:26:22.693Z,24.70
2018-06-08T08:27:28.184Z,23.67
2018-06-08T08:28:33.611Z,24.40
2018-06-08T08:29:39.132Z,21.50
2018-06-08T08:30:44.577Z,22.17
2018-06-08T08:31:50.110Z,22.73
2018-06-08T08:32:55.538Z,22.67
2018-06-08T08:34:01.017Z,21.80
2018-06-08T08:35:06.524Z,24.07
2018-06-08T08:36:12.381Z,22.63
2018-06-08T08:37:17.811Z,23.60
2018-06-08T08:38:23.222Z,23.20
2018-06-08T08:39:28.729Z,24.10
2018-06-08T08:40:34.298Z,25.10
2018-06-08T08:41:39.835Z,25.30
2018-06-08T08:42:45.243Z,24.17
2018-06-08T08:43:50.834Z,22.53
2018-06-08T08:44:56.262Z,23.23
2018-06-08T08:46:01.797Z,23.67
2018-06-08T08:47:07.502Z,22.53
2018-06-08T08:48:12.989Z,22.97
2018-06-08T08:49:18.529Z,22.17
2018-06-08T08:50:24.117Z,23.37
2018-06-08T08:51:29.716Z,21.70
2018-06-08T08:52:35.297Z,23.50
2018-06-08T08:53:40.955Z,21.43
2018-06-08T08:54:46.352Z,22.63
2018-06-08T08:55:51.789Z,20.33
2018-06-08T08:56:57.306Z,22.43
2018-06-08T08:58:02.746Z,22.70
2018-06-08T08:59:08.172Z,22.47
2018-06-08T09:00:13.810Z,23.27
2018-06-08T09:01:19.250Z,23.20
2018-06-08T09:02:24.774Z,22.23
2018-06-08T09:03:30.221Z,22.37
2018-06-08T09:04:35.654Z,20.30
2018-06-08T09:05:41.110Z,21.47
2018-06-08T09:06:46.541Z,20.90
2018-06-08T09:07:51.992Z,19.57
2018-06-08T09:08:57.477Z,21.10
2018-06-08T09:10:02.987Z,19.53
2018-06-08T09:11:08.458Z,21.10
2018-06-08T09:12:13.881Z,21.40
2018-06-08T09:13:19.203Z,21.07
2018-06-08T09:14:24.569Z,20.53
2018-06-08T09:15:30.137Z,21.10
2018-06-08T09:16:35.950Z,21.50
2018-06-08T09:17:41.387Z,22.53
2018-06-08T09:18:46.812Z,21.07
2018-06-08T09:19:52.258Z,20.80
2018-06-08T09:20:57.717Z,20.70
2018-06-08T09:22:03.181Z,22.00
2018-06-08T09:23:08.593Z,19.97
2018-06-08T09:24:14.017Z,20.27
2018-06-08T09:25:19.439Z,20.17
2018-06-08T09:26:24.934Z,22.10
2018-06-08T09:27:30.460Z,21.80
2018-06-08T09:28:35.924Z,21.77
2018-06-08T09:29:41.407Z,22.90
2018-06-08T09:30:46.862Z,21.50
2018-06-08T09:31:52.401Z,20.73
2018-06-08T09:32:57.870Z,21.67
2018-06-08T09:34:03.339Z,22.07
2018-06-08T09:35:08.849Z,21.73
2018-06-08T09:36:14.364Z,20.87
2018-06-08T09:37:19.983Z,19.67
2018-06-08T09:38:25.449Z,21.30
2018-06-08T09:39:30.986Z,20.83
2018-06-08T09:40:36.491Z,19.50
2018-06-08T09:41:41.915Z,19.73
2018-06-08T09:42:47.684Z,19.00
2018-06-08T09:43:53.129Z,18.97
2018-06-08T09:44:58.577Z,21.03
2018-06-08T09:46:04.020Z,20.13
2018-06-08T09:47:09.462Z,20.63
2018-06-08T09:48:14.928Z,20.27
2018-06-08T09:49:20.337Z,20.03
2018-06-08T09:50:25.922Z,18.97
2018-06-08T09:51:31.369Z,18.80
2018-06-08T09:52:36.786Z,19.40
2018-06-08T09:53:42.285Z,18.50
2018-06-08T09:54:47.788Z,19.10
2018-06-08T09:55:53.676Z,18.73
2018-06-08T09:56:59.221Z,18.80
2018-06-08T09:58:04.725Z,18.70
2018-06-08T09:59:10.117Z,18.90
2018-06-08T10:00:19.593Z,19.50
2018-06-08T10:01:25.042Z,18.70
2018-06-08T10:02:30.487Z,18.13
2018-06-08T10:03:35.981Z,20.47
2018-06-08T10:04:41.425Z,19.00
2018-06-08T10:05:46.861Z,17.77
2018-06-08T10:06:52.362Z,18.40
2018-06-08T10:07:57.825Z,18.57
2018-06-08T10:09:03.312Z,17.67
2018-06-08T10:10:08.834Z,18.03
2018-06-08T10:11:14.323Z,19.17
2018-06-08T10:12:19.953Z,18.17
2018-06-08T10:13:25.407Z,18.43
2018-06-08T10:14:30.826Z,18.07
2018-06-08T10:15:36.274Z,18.27
2018-06-08T10:16:41.766Z,17.70
2018-06-08T10:17:47.626Z,18.07
2018-06-08T10:18:53.094Z,19.47
2018-06-08T10:19:58.674Z,19.50
2018-06-08T10:21:04.201Z,16.60
2018-06-08T10:22:09.645Z,17.13
2018-06-08T10:23:15.097Z,18.63
2018-06-08T10:24:20.492Z,17.80
2018-06-08T10:25:25.917Z,18.07
2018-06-08T10:26:31.853Z,17.50
2018-06-08T10:27:37.314Z,17.30
2018-06-08T10:28:42.717Z,18.03
2018-06-08T10:29:48.289Z,18.17
2018-06-08T10:30:53.730Z,18.60
2018-06-08T10:31:59.444Z,19.37
2018-06-08T10:33:04.907Z,18.90
2018-06-08T10:34:10.442Z,18.00
2018-06-08T10:35:15.886Z,19.77
2018-06-08T10:36:21.305Z,18.07
2018-06-08T10:37:27.853Z,19.50
2018-06-08T10:38:33.403Z,17.93
2018-06-08T10:39:38.821Z,18.80
2018-06-08T10:40:44.264Z,20.33
2018-06-08T10:41:49.708Z,19.90
2018-06-08T10:42:55.172Z,18.80
2018-06-08T10:44:00.921Z,17.50
2018-06-08T10:45:06.614Z,18.60
2018-06-08T10:46:12.185Z,18.83
2018-06-08T10:47:17.618Z,18.70
2018-06-08T10:48:23.264Z,17.87
2018-06-08T10:49:28.691Z,17.97
2018-06-08T10:50:34.268Z,18.73
2018-06-08T10:51:39.685Z,19.07
2018-06-08T10:52:45.156Z,20.17
2018-06-08T10:53:50.593Z,20.03
2018-06-08T10:54:56.044Z,19.43
2018-06-08T10:56:03.965Z,20.57
2018-06-08T10:57:16.223Z,21.87
2018-06-08T10:58:21.713Z,20.87
2018-06-08T10:59:27.287Z,23.00
2018-06-08T11:00:32.886Z,20.63
2018-06-08T11:01:38.015Z,21.50
2018-06-08T11:02:43.390Z,20.80
2018-06-08T11:03:48.820Z,23.10
2018-06-08T11:04:54.420Z,22.10
2018-06-08T11:06:00.221Z,22.77
2018-06-08T11:07:05.951Z,22.23
2018-06-08T11:08:11.371Z,23.37
2018-06-08T11:09:16.871Z,22.70
2018-06-08T11:10:22.316Z,22.17
2018-06-08T11:11:27.822Z,23.73
2018-06-08T11:12:33.424Z,23.00
2018-06-08T11:13:38.863Z,27.90
2018-06-08T11:14:44.276Z,25.13
2018-06-08T11:15:49.761Z,26.03
2018-06-08T11:16:55.181Z,26.53
2018-06-08T11:18:00.690Z,26.17
2018-06-08T11:19:06.309Z,26.60
2018-06-08T11:20:11.742Z,26.73
2018-06-08T11:21:17.602Z,25.20
2018-06-08T11:22:23.055Z,27.93
2018-06-08T11:23:28.488Z,29.70
2018-06-08T11:24:33.982Z,28.13
2018-06-08T11:25:39.413Z,29.80
2018-06-08T11:26:45.351Z,28.77
2018-06-08T11:27:50.785Z,30.30
2018-06-08T11:28:56.217Z,27.70
2018-06-08T11:30:01.851Z,29.57
2018-06-08T11:31:07.292Z,30.27
2018-06-08T11:32:12.727Z,28.40
2018-06-08T11:33:18.209Z,28.70
2018-06-08T11:34:23.737Z,31.67
2018-06-08T11:35:29.541Z,30.93
2018-06-08T11:36:35.011Z,30.17
2018-06-08T11:37:40.498Z,30.20
2018-06-08T11:38:45.924Z,28.90
2018-06-08T11:39:51.445Z,30.60
2018-06-08T11:40:56.930Z,29.40
2018-06-08T11:42:02.829Z,31.73
2018-06-08T11:43:08.304Z,29.30
2018-06-08T11:44:13.840Z,29.80
2018-06-08T11:45:19.322Z,29.50
2018-06-08T11:46:24.757Z,29.90
2018-06-08T11:47:30.250Z,30.20
2018-06-08T11:48:35.727Z,31.13
2018-06-08T11:49:41.162Z,30.77
2018-06-08T11:50:46.741Z,30.30
2018-06-08T11:51:52.253Z,31.33
2018-06-08T11:52:57.825Z,30.10
2018-06-08T11:54:03.408Z,32.47
2018-06-08T11:55:09.076Z,30.67
2018-06-08T11:56:14.762Z,33.57
2018-06-08T11:57:20.169Z,33.37
2018-06-08T11:58:25.635Z,33.80
2018-06-08T11:59:31.164Z,32.83
2018-06-08T12:00:36.620Z,32.03
2018-06-08T12:01:42.519Z,29.30
2018-06-08T12:02:47.955Z,29.87
2018-06-08T12:03:53.378Z,30.13
2018-06-08T12:04:58.954Z,29.20
2018-06-08T12:06:04.442Z,31.30
2018-06-08T12:07:09.886Z,31.03
2018-06-08T12:08:15.295Z,31.70
2018-06-08T12:09:20.788Z,30.50
2018-06-08T12:10:26.249Z,28.10
2018-06-08T12:11:31.696Z,29.20
2018-06-08T12:12:37.122Z,28.87
2018-06-08T12:13:42.638Z,28.97
2018-06-08T12:14:48.072Z,28.67
2018-06-08T12:15:53.497Z,29.47
2018-06-08T12:16:58.943Z,27.83
2018-06-08T12:18:04.386Z,28.80
2018-06-08T12:19:10.016Z,27.87
2018-06-08T12:20:15.434Z,28.97
2018-06-08T12:21:20.833Z,30.00
2018-06-08T12:22:26.357Z,30.37
2018-06-08T12:23:31.888Z,27.23
2018-06-08T12:24:37.527Z,28.63
2018-06-08T12:25:42.970Z,28.43
2018-06-08T12:26:48.540Z,28.17
2018-06-08T12:27:53.957Z,28.13
2018-06-08T12:28:59.421Z,27.70
2018-06-08T12:30:04.692Z,28.17
2018-06-08T12:31:10.050Z,27.80
2018-06-08T12:32:15.475Z,26.57
2018-06-08T12:33:20.888Z,27.63
2018-06-08T12:34:26.322Z,26.70
2018-06-08T12:35:31.749Z,29.33
2018-06-08T12:36:37.366Z,27.90
2018-06-08T12:37:42.780Z,27.47
2018-06-08T12:38:48.227Z,28.10
2018-06-08T12:39:53.724Z,26.60
2018-06-08T12:40:59.199Z,28.07
2018-06-08T12:42:05.136Z,27.13
2018-06-08T12:43:10.597Z,27.50
2018-06-08T12:44:16.096Z,28.33
2018-06-08T12:45:21.578Z,27.03
2018-06-08T12:46:26.986Z,29.83
2018-06-08T12:47:32.481Z,26.47
2018-06-08T12:48:37.946Z,27.53
2018-06-08T12:49:43.529Z,27.70
2018-06-08T12:50:48.966Z,28.03
2018-06-08T12:51:54.388Z,27.20
2018-06-08T12:52:59.824Z,26.83
2018-06-08T12:54:05.364Z,26.93
2018-06-08T12:55:10.966Z,27.40
2018-06-08T12:56:16.365Z,28.00
2018-06-08T12:57:21.793Z,25.80
2018-06-08T12:58:27.207Z,26.13
2018-06-08T12:59:32.761Z,25.17
2018-06-08T13:00:38.281Z,24.47
2018-06-08T13:01:44.006Z,25.60
2018-06-08T13:02:49.519Z,26.60
2018-06-08T13:03:54.969Z,25.80
2018-06-08T13:05:00.394Z,25.30
2018-06-08T13:06:06.225Z,25.43
2018-06-08T13:07:11.652Z,26.00
2018-06-08T13:08:17.104Z,24.60
2018-06-08T13:09:22.731Z,24.17
2018-06-08T13:10:28.162Z,24.27
2018-06-08T13:11:33.597Z,25.13
2018-06-08T13:12:39.081Z,23.97
2018-06-08T13:13:44.586Z,25.10
2018-06-08T13:14:50.042Z,26.73
2018-06-08T13:15:55.469Z,24.97
2018-06-08T13:17:01.008Z,24.80
2018-06-08T13:18:07.064Z,25.60
2018-06-08T13:19:12.988Z,26.00
2018-06-08T13:20:18.399Z,26.00
2018-06-08T13:21:23.846Z,27.87
2018-06-08T13:22:29.267Z,25.80
2018-06-08T13:23:34.729Z,25.20
2018-06-08T13:24:40.489Z,25.33
2018-06-08T13:25:45.890Z,26.40
2018-06-08T13:26:51.393Z,26.10
2018-06-08T13:27:58.688Z,26.57
2018-06-08T13:29:04.180Z,27.97
2018-06-08T13:30:09.682Z,27.87
2018-06-08T13:31:15.131Z,26.47
2018-06-08T13:32:20.729Z,27.90
2018-06-08T13:33:26.165Z,25.13
2018-06-08T13:34:31.576Z,27.73
2018-06-08T13:35:37.209Z,26.67
2018-06-08T13:36:42.642Z,27.90
2018-06-08T13:37:48.090Z,29.20
2018-06-08T13:38:53.526Z,28.40
2018-06-08T13:39:59.084Z,26.80
2018-06-08T13:41:04.558Z,30.60
2018-06-08T13:42:09.822Z,29.17
2018-06-08T13:43:15.202Z,31.20
2018-06-08T13:44:20.645Z,29.53
2018-06-08T13:45:26.219Z,30.33
2018-06-08T13:46:43.036Z,30.30
2018-06-08T13:47:48.458Z,30.20
2018-06-08T13:48:53.912Z,32.80
2018-06-08T13:49:59.497Z,33.57
2018-06-08T13:51:05.026Z,31.07
2018-06-08T13:52:10.694Z,33.70
2018-06-08T13:53:16.133Z,34.80
2018-06-08T13:54:21.590Z,32.03
2018-06-08T13:55:27.053Z,34.17
2018-06-08T13:56:32.473Z,33.17
2018-06-08T13:57:37.989Z,33.80
2018-06-08T13:58:43.501Z,32.50
2018-06-08T13:59:48.668Z,36.40
2018-06-08T14:00:54.014Z,35.17
2018-06-08T14:01:59.709Z,35.37
2018-06-08T14:03:05.470Z,35.50
2018-06-08T14:04:10.975Z,37.50